sensor_id;sensor_type;location;lat;lon;timestamp;P1;durP1;ratioP1;P2;durP2;ratioP2
35961;SDS011;22044;48.298;10.008;2022-07-18T00:00:04;3.27;;;2.90;;
35961;SDS011;22044;48.298;10.008;2022-07-18T00:02:51;3.83;;;2.80;;
35961;SDS011;22044;48.298;10.008;2022-07-18T00:05:37;4.87;;;2.80;;
35961;SDS011;22044;48.298;10.008;2022-07-18T00:08:24;3.27;;;3.00;;
35961;SDS011;22044;48.298;10.008;2022-07-18T00:11:09;4.47;;;2.73;;
35961;SDS011;22044;48.298;10.008;2022-07-18T00:13:55;2.93;;;2.73;;
35961;SDS011;22044;48.298;10.008;2022-07-18T00:16:41;4.03;;;2.90;;
35961;SDS011;22044;48.298;10.008;2022-07-18T00:19:27;3.63;;;3.10;;
35961;SDS011;22044;48.298;10.008;2022-07-18T00:22:13;3.90;;;3.03;;
35961;SDS011;22044;48.298;10.008;2022-07-18T00:25:00;3.27;;;2.60;;
35961;SDS011;22044;48.298;10.008;2022-07-18T00:27:45;3.47;;;3.17;;
35961;SDS011;22044;48.298;10.008;2022-07-18T00:30:31;3.90;;;3.00;;
35961;SDS011;22044;48.298;10.008;2022-07-18T00:33:17;4.43;;;3.30;;
35961;SDS011;22044;48.298;10.008;2022-07-18T00:36:02;4.50;;;3.37;;
35961;SDS011;22044;48.298;10.008;2022-07-18T00:38:48;3.50;;;3.20;;
35961;SDS011;22044;48.298;10.008;2022-07-18T00:41:35;3.77;;;3.00;;
35961;SDS011;22044;48.298;10.008;2022-07-18T00:44:21;3.90;;;3.30;;
35961;SDS011;22044;48.298;10.008;2022-07-18T00:47:08;5.33;;;3.70;;
35961;SDS011;22044;48.298;10.008;2022-07-18T00:49:54;4.07;;;3.43;;
35961;SDS011;22044;48.298;10.008;2022-07-18T00:52:40;7.07;;;3.27;;
35961;SDS011;22044;48.298;10.008;2022-07-18T00:55:25;4.50;;;3.00;;
35961;SDS011;22044;48.298;10.008;2022-07-18T00:58:13;4.60;;;3.40;;
35961;SDS011;22044;48.298;10.008;2022-07-18T01:00:58;3.33;;;3.03;;
35961;SDS011;22044;48.298;10.008;2022-07-18T01:04:02;3.47;;;3.20;;
35961;SDS011;22044;48.298;10.008;2022-07-18T01:06:48;3.37;;;3.07;;
35961;SDS011;22044;48.298;10.008;2022-07-18T01:09:35;3.67;;;3.37;;
35961;SDS011;22044;48.298;10.008;2022-07-18T01:12:20;3.53;;;3.03;;
35961;SDS011;22044;48.298;10.008;2022-07-18T01:15:08;3.73;;;3.00;;
35961;SDS011;22044;48.298;10.008;2022-07-18T01:17:53;3.67;;;2.97;;
35961;SDS011;22044;48.298;10.008;2022-07-18T01:20:41;3.37;;;2.97;;
35961;SDS011;22044;48.298;10.008;2022-07-18T01:23:27;3.80;;;3.40;;
35961;SDS011;22044;48.298;10.008;2022-07-18T01:26:13;3.70;;;3.23;;
35961;SDS011;22044;48.298;10.008;2022-07-18T01:28:59;4.73;;;3.13;;
35961;SDS011;22044;48.298;10.008;2022-07-18T01:31:45;3.47;;;3.17;;
35961;SDS011;22044;48.298;10.008;2022-07-18T01:34:31;5.77;;;3.47;;
35961;SDS011;22044;48.298;10.008;2022-07-18T01:37:18;3.83;;;3.30;;
35961;SDS011;22044;48.298;10.008;2022-07-18T01:40:06;6.60;;;3.00;;
35961;SDS011;22044;48.298;10.008;2022-07-18T01:42:52;3.80;;;3.50;;
35961;SDS011;22044;48.298;10.008;2022-07-18T01:45:38;3.53;;;3.23;;
35961;SDS011;22044;48.298;10.008;2022-07-18T01:48:24;4.33;;;3.10;;
35961;SDS011;22044;48.298;10.008;2022-07-18T01:51:10;4.23;;;3.70;;
35961;SDS011;22044;48.298;10.008;2022-07-18T01:53:57;5.50;;;3.37;;
35961;SDS011;22044;48.298;10.008;2022-07-18T01:56:45;3.67;;;3.37;;
35961;SDS011;22044;48.298;10.008;2022-07-18T01:59:30;3.93;;;3.20;;
35961;SDS011;22044;48.298;10.008;2022-07-18T02:02:16;3.70;;;3.40;;
35961;SDS011;22044;48.298;10.008;2022-07-18T02:05:01;3.83;;;3.43;;
35961;SDS011;22044;48.298;10.008;2022-07-18T02:07:47;3.37;;;3.07;;
35961;SDS011;22044;48.298;10.008;2022-07-18T02:10:34;4.43;;;3.37;;
35961;SDS011;22044;48.298;10.008;2022-07-18T02:13:20;4.57;;;3.10;;
35961;SDS011;22044;48.298;10.008;2022-07-18T02:16:06;3.67;;;3.30;;
35961;SDS011;22044;48.298;10.008;2022-07-18T02:18:52;3.80;;;3.47;;
35961;SDS011;22044;48.298;10.008;2022-07-18T02:21:38;4.00;;;3.03;;
35961;SDS011;22044;48.298;10.008;2022-07-18T02:24:23;3.80;;;3.40;;
35961;SDS011;22044;48.298;10.008;2022-07-18T02:27:11;3.50;;;3.20;;
35961;SDS011;22044;48.298;10.008;2022-07-18T02:29:57;3.47;;;3.17;;
35961;SDS011;22044;48.298;10.008;2022-07-18T02:32:42;4.93;;;3.23;;
35961;SDS011;22044;48.298;10.008;2022-07-18T02:35:28;3.50;;;3.20;;
35961;SDS011;22044;48.298;10.008;2022-07-18T02:38:14;5.27;;;3.60;;
35961;SDS011;22044;48.298;10.008;2022-07-18T02:41:00;3.70;;;3.30;;
35961;SDS011;22044;48.298;10.008;2022-07-18T02:43:47;3.87;;;3.57;;
35961;SDS011;22044;48.298;10.008;2022-07-18T02:46:32;8.20;;;3.60;;
35961;SDS011;22044;48.298;10.008;2022-07-18T02:49:18;3.73;;;3.43;;
35961;SDS011;22044;48.298;10.008;2022-07-18T02:52:20;5.07;;;3.43;;
35961;SDS011;22044;48.298;10.008;2022-07-18T02:55:06;6.73;;;3.50;;
35961;SDS011;22044;48.298;10.008;2022-07-18T02:57:52;3.57;;;3.27;;
35961;SDS011;22044;48.298;10.008;2022-07-18T03:00:39;4.03;;;3.50;;
35961;SDS011;22044;48.298;10.008;2022-07-18T03:03:25;4.00;;;3.70;;
35961;SDS011;22044;48.298;10.008;2022-07-18T03:06:11;4.13;;;3.73;;
35961;SDS011;22044;48.298;10.008;2022-07-18T03:08:57;3.70;;;3.40;;
35961;SDS011;22044;48.298;10.008;2022-07-18T03:11:42;3.90;;;3.53;;
35961;SDS011;22044;48.298;10.008;2022-07-18T03:14:28;4.63;;;3.90;;
35961;SDS011;22044;48.298;10.008;2022-07-18T03:17:15;3.80;;;3.40;;
35961;SDS011;22044;48.298;10.008;2022-07-18T03:20:00;3.57;;;3.27;;
35961;SDS011;22044;48.298;10.008;2022-07-18T03:22:46;5.03;;;4.23;;
35961;SDS011;22044;48.298;10.008;2022-07-18T03:25:32;4.40;;;3.43;;
35961;SDS011;22044;48.298;10.008;2022-07-18T03:28:17;5.17;;;3.77;;
35961;SDS011;22044;48.298;10.008;2022-07-18T03:31:03;5.80;;;3.87;;
35961;SDS011;22044;48.298;10.008;2022-07-18T03:33:50;3.80;;;3.50;;
35961;SDS011;22044;48.298;10.008;2022-07-18T03:36:36;4.20;;;3.90;;
35961;SDS011;22044;48.298;10.008;2022-07-18T03:39:22;3.80;;;3.50;;
35961;SDS011;22044;48.298;10.008;2022-07-18T03:42:07;5.13;;;3.83;;
35961;SDS011;22044;48.298;10.008;2022-07-18T03:44:53;3.87;;;3.47;;
35961;SDS011;22044;48.298;10.008;2022-07-18T03:47:39;4.57;;;3.90;;
35961;SDS011;22044;48.298;10.008;2022-07-18T03:50:26;3.90;;;3.47;;
35961;SDS011;22044;48.298;10.008;2022-07-18T03:53:12;4.30;;;3.57;;
35961;SDS011;22044;48.298;10.008;2022-07-18T03:55:58;3.77;;;3.47;;
35961;SDS011;22044;48.298;10.008;2022-07-18T03:58:43;3.73;;;3.43;;
35961;SDS011;22044;48.298;10.008;2022-07-18T04:01:29;4.17;;;3.77;;
35961;SDS011;22044;48.298;10.008;2022-07-18T04:04:15;3.70;;;3.43;;
35961;SDS011;22044;48.298;10.008;2022-07-18T04:07:02;4.17;;;3.50;;
35961;SDS011;22044;48.298;10.008;2022-07-18T04:09:47;4.13;;;3.73;;
35961;SDS011;22044;48.298;10.008;2022-07-18T04:12:33;4.70;;;4.07;;
35961;SDS011;22044;48.298;10.008;2022-07-18T04:15:20;9.97;;;3.90;;
35961;SDS011;22044;48.298;10.008;2022-07-18T04:18:07;6.23;;;3.77;;
35961;SDS011;22044;48.298;10.008;2022-07-18T04:20:53;5.00;;;4.37;;
35961;SDS011;22044;48.298;10.008;2022-07-18T04:23:40;5.13;;;4.17;;
35961;SDS011;22044;48.298;10.008;2022-07-18T04:26:26;4.10;;;3.70;;
35961;SDS011;22044;48.298;10.008;2022-07-18T04:29:12;6.70;;;4.10;;
35961;SDS011;22044;48.298;10.008;2022-07-18T04:31:57;4.00;;;3.70;;
35961;SDS011;22044;48.298;10.008;2022-07-18T04:34:43;5.87;;;4.00;;
35961;SDS011;22044;48.298;10.008;2022-07-18T04:37:29;6.03;;;4.00;;
35961;SDS011;22044;48.298;10.008;2022-07-18T04:40:17;5.83;;;3.83;;
35961;SDS011;22044;48.298;10.008;2022-07-18T04:43:03;4.10;;;3.70;;
35961;SDS011;22044;48.298;10.008;2022-07-18T04:45:49;4.10;;;3.70;;
35961;SDS011;22044;48.298;10.008;2022-07-18T04:48:35;6.47;;;4.10;;
35961;SDS011;22044;48.298;10.008;2022-07-18T04:51:22;3.97;;;3.57;;
35961;SDS011;22044;48.298;10.008;2022-07-18T04:54:08;4.30;;;3.90;;
35961;SDS011;22044;48.298;10.008;2022-07-18T04:56:57;3.87;;;3.57;;
35961;SDS011;22044;48.298;10.008;2022-07-18T04:59:43;4.57;;;3.87;;
35961;SDS011;22044;48.298;10.008;2022-07-18T05:02:29;3.83;;;3.43;;
35961;SDS011;22044;48.298;10.008;2022-07-18T05:05:15;5.23;;;4.00;;
35961;SDS011;22044;48.298;10.008;2022-07-18T05:08:02;5.43;;;4.07;;
35961;SDS011;22044;48.298;10.008;2022-07-18T05:10:48;5.00;;;4.00;;
35961;SDS011;22044;48.298;10.008;2022-07-18T05:13:35;4.13;;;3.60;;
35961;SDS011;22044;48.298;10.008;2022-07-18T05:16:20;5.27;;;4.03;;
35961;SDS011;22044;48.298;10.008;2022-07-18T05:19:06;5.27;;;4.10;;
35961;SDS011;22044;48.298;10.008;2022-07-18T05:21:53;4.27;;;3.90;;
35961;SDS011;22044;48.298;10.008;2022-07-18T05:24:39;5.33;;;4.03;;
35961;SDS011;22044;48.298;10.008;2022-07-18T05:27:24;4.33;;;3.67;;
35961;SDS011;22044;48.298;10.008;2022-07-18T05:30:12;4.20;;;3.80;;
35961;SDS011;22044;48.298;10.008;2022-07-18T05:32:58;5.73;;;4.00;;
35961;SDS011;22044;48.298;10.008;2022-07-18T05:35:44;4.80;;;3.60;;
35961;SDS011;22044;48.298;10.008;2022-07-18T05:38:30;7.17;;;3.83;;
35961;SDS011;22044;48.298;10.008;2022-07-18T05:41:16;4.60;;;4.20;;
35961;SDS011;22044;48.298;10.008;2022-07-18T05:44:02;4.10;;;3.70;;
35961;SDS011;22044;48.298;10.008;2022-07-18T05:46:50;5.63;;;3.83;;
35961;SDS011;22044;48.298;10.008;2022-07-18T05:49:36;4.30;;;3.90;;
35961;SDS011;22044;48.298;10.008;2022-07-18T05:52:21;4.20;;;3.90;;
35961;SDS011;22044;48.298;10.008;2022-07-18T05:55:08;4.10;;;3.60;;
35961;SDS011;22044;48.298;10.008;2022-07-18T05:57:54;4.73;;;4.17;;
35961;SDS011;22044;48.298;10.008;2022-07-18T06:00:40;4.33;;;3.07;;
35961;SDS011;22044;48.298;10.008;2022-07-18T06:03:27;3.60;;;3.30;;
35961;SDS011;22044;48.298;10.008;2022-07-18T06:06:13;5.57;;;3.60;;
35961;SDS011;22044;48.298;10.008;2022-07-18T06:08:59;5.13;;;3.53;;
35961;SDS011;22044;48.298;10.008;2022-07-18T06:11:44;4.33;;;3.70;;
35961;SDS011;22044;48.298;10.008;2022-07-18T06:14:30;3.47;;;2.97;;
35961;SDS011;22044;48.298;10.008;2022-07-18T06:17:16;5.47;;;3.40;;
35961;SDS011;22044;48.298;10.008;2022-07-18T06:20:04;8.77;;;3.47;;
35961;SDS011;22044;48.298;10.008;2022-07-18T06:22:51;3.43;;;2.97;;
35961;SDS011;22044;48.298;10.008;2022-07-18T06:25:37;5.30;;;3.47;;
35961;SDS011;22044;48.298;10.008;2022-07-18T06:28:23;3.47;;;3.13;;
35961;SDS011;22044;48.298;10.008;2022-07-18T06:31:09;5.50;;;2.90;;
35961;SDS011;22044;48.298;10.008;2022-07-18T06:33:58;4.47;;;3.17;;
35961;SDS011;22044;48.298;10.008;2022-07-18T06:36:45;2.97;;;2.70;;
35961;SDS011;22044;48.298;10.008;2022-07-18T06:39:31;4.07;;;3.00;;
35961;SDS011;22044;48.298;10.008;2022-07-18T06:42:16;4.27;;;3.00;;
35961;SDS011;22044;48.298;10.008;2022-07-18T06:45:02;3.43;;;2.93;;
35961;SDS011;22044;48.298;10.008;2022-07-18T06:47:49;3.40;;;2.73;;
35961;SDS011;22044;48.298;10.008;2022-07-18T06:50:35;6.50;;;3.00;;
35961;SDS011;22044;48.298;10.008;2022-07-18T06:53:21;4.23;;;3.07;;
35961;SDS011;22044;48.298;10.008;2022-07-18T06:56:08;3.87;;;3.37;;
35961;SDS011;22044;48.298;10.008;2022-07-18T06:58:54;3.87;;;2.60;;
35961;SDS011;22044;48.298;10.008;2022-07-18T07:01:39;3.20;;;2.70;;
35961;SDS011;22044;48.298;10.008;2022-07-18T07:04:25;7.33;;;2.90;;
35961;SDS011;22044;48.298;10.008;2022-07-18T07:07:14;3.43;;;2.93;;
35961;SDS011;22044;48.298;10.008;2022-07-18T07:10:01;3.73;;;3.00;;
35961;SDS011;22044;48.298;10.008;2022-07-18T07:12:47;4.10;;;2.77;;
35961;SDS011;22044;48.298;10.008;2022-07-18T07:15:34;3.73;;;3.20;;
35961;SDS011;22044;48.298;10.008;2022-07-18T07:18:20;3.47;;;3.17;;
35961;SDS011;22044;48.298;10.008;2022-07-18T07:21:06;4.80;;;3.17;;
35961;SDS011;22044;48.298;10.008;2022-07-18T07:23:53;4.13;;;2.90;;
35961;SDS011;22044;48.298;10.008;2022-07-18T07:26:40;8.30;;;3.80;;
35961;SDS011;22044;48.298;10.008;2022-07-18T07:29:25;4.43;;;3.55;;
35961;SDS011;22044;48.298;10.008;2022-07-18T07:32:11;4.37;;;3.07;;
35961;SDS011;22044;48.298;10.008;2022-07-18T07:34:57;3.53;;;3.17;;
35961;SDS011;22044;48.298;10.008;2022-07-18T07:37:44;4.47;;;3.03;;
35961;SDS011;22044;48.298;10.008;2022-07-18T07:40:31;7.38;;;3.08;;
35961;SDS011;22044;48.298;10.008;2022-07-18T07:43:18;10.95;;;2.88;;
35961;SDS011;22044;48.298;10.008;2022-07-18T07:46:04;4.25;;;2.35;;
35961;SDS011;22044;48.298;10.008;2022-07-18T07:48:50;5.18;;;2.75;;
35961;SDS011;22044;48.298;10.008;2022-07-18T07:51:35;3.60;;;2.53;;
35961;SDS011;22044;48.298;10.008;2022-07-18T07:54:21;3.25;;;2.80;;
35961;SDS011;22044;48.298;10.008;2022-07-18T07:57:07;7.43;;;2.83;;
35961;SDS011;22044;48.298;10.008;2022-07-18T07:59:54;6.03;;;2.88;;
35961;SDS011;22044;48.298;10.008;2022-07-18T08:02:50;5.55;;;2.40;;
35961;SDS011;22044;48.298;10.008;2022-07-18T08:05:38;5.80;;;2.60;;
35961;SDS011;22044;48.298;10.008;2022-07-18T08:08:29;3.55;;;2.50;;
35961;SDS011;22044;48.298;10.008;2022-07-18T08:11:15;5.68;;;2.78;;
35961;SDS011;22044;48.298;10.008;2022-07-18T08:14:00;3.50;;;2.67;;
35961;SDS011;22044;48.298;10.008;2022-07-18T08:16:47;6.95;;;3.13;;
35961;SDS011;22044;48.298;10.008;2022-07-18T08:19:33;5.30;;;2.38;;
35961;SDS011;22044;48.298;10.008;2022-07-18T08:22:18;3.42;;;2.47;;
35961;SDS011;22044;48.298;10.008;2022-07-18T08:25:05;3.33;;;2.30;;
35961;SDS011;22044;48.298;10.008;2022-07-18T08:27:50;4.57;;;2.60;;
35961;SDS011;22044;48.298;10.008;2022-07-18T08:30:37;4.68;;;2.30;;
35961;SDS011;22044;48.298;10.008;2022-07-18T08:33:24;2.67;;;2.22;;
35961;SDS011;22044;48.298;10.008;2022-07-18T08:36:10;5.55;;;2.30;;
35961;SDS011;22044;48.298;10.008;2022-07-18T08:38:56;4.43;;;2.67;;
35961;SDS011;22044;48.298;10.008;2022-07-18T08:41:41;2.65;;;2.10;;
35961;SDS011;22044;48.298;10.008;2022-07-18T08:44:30;3.80;;;2.42;;
35961;SDS011;22044;48.298;10.008;2022-07-18T08:47:18;3.30;;;2.30;;
35961;SDS011;22044;48.298;10.008;2022-07-18T08:50:07;2.85;;;2.20;;
35961;SDS011;22044;48.298;10.008;2022-07-18T08:52:53;2.38;;;1.92;;
35961;SDS011;22044;48.298;10.008;2022-07-18T08:55:40;2.05;;;1.85;;
35961;SDS011;22044;48.298;10.008;2022-07-18T08:58:26;4.10;;;2.17;;
35961;SDS011;22044;48.298;10.008;2022-07-18T09:01:12;11.40;;;2.42;;
35961;SDS011;22044;48.298;10.008;2022-07-18T09:03:58;6.45;;;2.20;;
35961;SDS011;22044;48.298;10.008;2022-07-18T09:07:07;2.15;;;1.88;;
35961;SDS011;22044;48.298;10.008;2022-07-18T09:09:54;3.65;;;1.85;;
35961;SDS011;22044;48.298;10.008;2022-07-18T09:12:54;3.70;;;2.13;;
35961;SDS011;22044;48.298;10.008;2022-07-18T09:15:55;2.58;;;2.22;;
35961;SDS011;22044;48.298;10.008;2022-07-18T09:18:42;8.07;;;2.65;;
35961;SDS011;22044;48.298;10.008;2022-07-18T09:21:30;3.08;;;2.33;;
35961;SDS011;22044;48.298;10.008;2022-07-18T09:24:22;3.15;;;2.13;;
35961;SDS011;22044;48.298;10.008;2022-07-18T09:27:12;4.10;;;2.55;;
35961;SDS011;22044;48.298;10.008;2022-07-18T09:30:19;5.55;;;2.20;;
35961;SDS011;22044;48.298;10.008;2022-07-18T09:33:09;8.13;;;2.50;;
35961;SDS011;22044;48.298;10.008;2022-07-18T09:35:55;2.58;;;2.03;;
35961;SDS011;22044;48.298;10.008;2022-07-18T09:38:41;5.30;;;2.33;;
35961;SDS011;22044;48.298;10.008;2022-07-18T09:41:28;3.72;;;2.40;;
35961;SDS011;22044;48.298;10.008;2022-07-18T09:44:16;2.03;;;1.92;;
35961;SDS011;22044;48.298;10.008;2022-07-18T09:47:03;4.25;;;2.13;;
35961;SDS011;22044;48.298;10.008;2022-07-18T09:49:50;4.20;;;2.05;;
35961;SDS011;22044;48.298;10.008;2022-07-18T09:52:36;3.15;;;2.00;;
35961;SDS011;22044;48.298;10.008;2022-07-18T09:55:22;3.22;;;2.13;;
35961;SDS011;22044;48.298;10.008;2022-07-18T09:58:10;3.40;;;2.13;;
35961;SDS011;22044;48.298;10.008;2022-07-18T10:00:56;3.22;;;1.92;;
35961;SDS011;22044;48.298;10.008;2022-07-18T10:03:43;1.90;;;1.70;;
35961;SDS011;22044;48.298;10.008;2022-07-18T10:06:29;3.10;;;2.00;;
35961;SDS011;22044;48.298;10.008;2022-07-18T10:09:16;2.00;;;1.80;;
35961;SDS011;22044;48.298;10.008;2022-07-18T10:12:02;2.15;;;1.80;;
35961;SDS011;22044;48.298;10.008;2022-07-18T10:14:50;3.97;;;1.90;;
35961;SDS011;22044;48.298;10.008;2022-07-18T10:17:35;4.07;;;2.05;;
35961;SDS011;22044;48.298;10.008;2022-07-18T10:20:25;3.78;;;1.80;;
35961;SDS011;22044;48.298;10.008;2022-07-18T10:23:15;2.90;;;2.13;;
35961;SDS011;22044;48.298;10.008;2022-07-18T10:26:07;6.20;;;2.10;;
35961;SDS011;22044;48.298;10.008;2022-07-18T10:29:15;3.55;;;1.55;;
35961;SDS011;22044;48.298;10.008;2022-07-18T10:32:03;3.47;;;1.70;;
35961;SDS011;22044;48.298;10.008;2022-07-18T10:34:51;2.33;;;1.92;;
35961;SDS011;22044;48.298;10.008;2022-07-18T10:37:37;2.03;;;1.83;;
35961;SDS011;22044;48.298;10.008;2022-07-18T10:40:27;2.00;;;1.90;;
35961;SDS011;22044;48.298;10.008;2022-07-18T10:46:17;2.33;;;1.80;;
35961;SDS011;22044;48.298;10.008;2022-07-18T10:49:04;3.65;;;2.00;;
35961;SDS011;22044;48.298;10.008;2022-07-18T10:51:49;3.15;;;1.70;;
35961;SDS011;22044;48.298;10.008;2022-07-18T10:54:35;2.45;;;1.55;;
35961;SDS011;22044;48.298;10.008;2022-07-18T10:57:21;2.03;;;1.45;;
35961;SDS011;22044;48.298;10.008;2022-07-18T11:00:07;1.80;;;1.70;;
35961;SDS011;22044;48.298;10.008;2022-07-18T11:03:03;2.50;;;1.77;;
35961;SDS011;22044;48.298;10.008;2022-07-18T11:05:52;2.17;;;1.92;;
35961;SDS011;22044;48.298;10.008;2022-07-18T11:08:39;2.47;;;1.58;;
35961;SDS011;22044;48.298;10.008;2022-07-18T11:11:24;2.22;;;1.42;;
35961;SDS011;22044;48.298;10.008;2022-07-18T11:14:10;1.80;;;1.70;;
35961;SDS011;22044;48.298;10.008;2022-07-18T11:20:47;3.22;;;1.85;;
35961;SDS011;22044;48.298;10.008;2022-07-18T11:23:39;2.08;;;1.80;;
35961;SDS011;22044;48.298;10.008;2022-07-18T11:26:27;3.03;;;1.52;;
35961;SDS011;22044;48.298;10.008;2022-07-18T11:29:15;1.70;;;1.60;;
35961;SDS011;22044;48.298;10.008;2022-07-18T11:32:02;1.65;;;1.55;;
35961;SDS011;22044;48.298;10.008;2022-07-18T11:34:49;2.83;;;1.85;;
35961;SDS011;22044;48.298;10.008;2022-07-18T11:37:35;2.72;;;1.67;;
35961;SDS011;22044;48.298;10.008;2022-07-18T11:40:23;3.28;;;1.80;;
35961;SDS011;22044;48.298;10.008;2022-07-18T11:43:08;2.72;;;1.60;;
35961;SDS011;22044;48.298;10.008;2022-07-18T11:46:01;2.00;;;1.60;;
35961;SDS011;22044;48.298;10.008;2022-07-18T11:48:57;1.98;;;1.80;;
35961;SDS011;22044;48.298;10.008;2022-07-18T11:51:43;3.30;;;1.95;;
35961;SDS011;22044;48.298;10.008;2022-07-18T11:54:29;1.95;;;1.70;;
35961;SDS011;22044;48.298;10.008;2022-07-18T11:57:26;2.05;;;1.90;;
35961;SDS011;22044;48.298;10.008;2022-07-18T12:00:14;3.47;;;1.67;;
35961;SDS011;22044;48.298;10.008;2022-07-18T12:03:08;1.90;;;1.73;;
35961;SDS011;22044;48.298;10.008;2022-07-18T12:05:56;2.17;;;1.88;;
35961;SDS011;22044;48.298;10.008;2022-07-18T12:08:42;1.80;;;1.70;;
35961;SDS011;22044;48.298;10.008;2022-07-18T12:11:30;3.25;;;1.50;;
35961;SDS011;22044;48.298;10.008;2022-07-18T12:14:19;1.63;;;1.52;;
35961;SDS011;22044;48.298;10.008;2022-07-18T12:17:05;3.92;;;1.90;;
35961;SDS011;22044;48.298;10.008;2022-07-18T12:19:51;2.55;;;1.92;;
35961;SDS011;22044;48.298;10.008;2022-07-18T12:22:37;2.10;;;1.90;;
35961;SDS011;22044;48.298;10.008;2022-07-18T12:25:51;2.33;;;1.55;;
35961;SDS011;22044;48.298;10.008;2022-07-18T12:28:37;4.32;;;1.65;;
35961;SDS011;22044;48.298;10.008;2022-07-18T12:31:40;2.75;;;1.63;;
35961;SDS011;22044;48.298;10.008;2022-07-18T12:34:26;2.20;;;2.00;;
35961;SDS011;22044;48.298;10.008;2022-07-18T12:37:12;3.00;;;2.00;;
35961;SDS011;22044;48.298;10.008;2022-07-18T12:39:58;1.80;;;1.70;;
35961;SDS011;22044;48.298;10.008;2022-07-18T12:42:44;1.83;;;1.60;;
35961;SDS011;22044;48.298;10.008;2022-07-18T12:45:30;3.13;;;1.80;;
35961;SDS011;22044;48.298;10.008;2022-07-18T12:48:17;3.92;;;2.15;;
35961;SDS011;22044;48.298;10.008;2022-07-18T12:51:05;2.35;;;1.70;;
35961;SDS011;22044;48.298;10.008;2022-07-18T12:53:51;2.13;;;1.92;;
35961;SDS011;22044;48.298;10.008;2022-07-18T12:56:37;3.65;;;1.98;;
35961;SDS011;22044;48.298;10.008;2022-07-18T12:59:23;5.88;;;2.00;;
35961;SDS011;22044;48.298;10.008;2022-07-18T13:02:09;1.70;;;1.60;;
35961;SDS011;22044;48.298;10.008;2022-07-18T13:04:57;2.67;;;1.83;;
35961;SDS011;22044;48.298;10.008;2022-07-18T13:07:42;1.40;;;1.30;;
35961;SDS011;22044;48.298;10.008;2022-07-18T13:10:28;2.55;;;1.95;;
35961;SDS011;22044;48.298;10.008;2022-07-18T13:13:13;2.08;;;1.88;;
35961;SDS011;22044;48.298;10.008;2022-07-18T13:15:59;2.08;;;1.80;;
35961;SDS011;22044;48.298;10.008;2022-07-18T13:18:44;1.95;;;1.80;;
35961;SDS011;22044;48.298;10.008;2022-07-18T13:21:31;2.22;;;1.80;;
35961;SDS011;22044;48.298;10.008;2022-07-18T13:24:17;3.90;;;1.50;;
35961;SDS011;22044;48.298;10.008;2022-07-18T13:27:03;1.98;;;1.88;;
35961;SDS011;22044;48.298;10.008;2022-07-18T13:29:49;2.97;;;1.60;;
35961;SDS011;22044;48.298;10.008;2022-07-18T13:32:35;1.73;;;1.63;;
35961;SDS011;22044;48.298;10.008;2022-07-18T13:35:21;4.40;;;1.90;;
35961;SDS011;22044;48.298;10.008;2022-07-18T13:38:07;2.42;;;1.60;;
35961;SDS011;22044;48.298;10.008;2022-07-18T13:40:53;2.65;;;1.85;;
35961;SDS011;22044;48.298;10.008;2022-07-18T13:43:39;1.70;;;1.60;;
35961;SDS011;22044;48.298;10.008;2022-07-18T13:46:25;2.20;;;1.67;;
35961;SDS011;22044;48.298;10.008;2022-07-18T13:49:11;2.05;;;1.70;;
35961;SDS011;22044;48.298;10.008;2022-07-18T13:51:57;3.33;;;1.85;;
35961;SDS011;22044;48.298;10.008;2022-07-18T13:54:44;2.92;;;1.65;;
35961;SDS011;22044;48.298;10.008;2022-07-18T13:57:31;3.00;;;1.67;;
35961;SDS011;22044;48.298;10.008;2022-07-18T14:00:16;3.33;;;1.73;;
35961;SDS011;22044;48.298;10.008;2022-07-18T14:03:03;2.10;;;1.90;;
35961;SDS011;22044;48.298;10.008;2022-07-18T14:05:49;2.50;;;1.83;;
35961;SDS011;22044;48.298;10.008;2022-07-18T14:08:35;3.08;;;1.75;;
35961;SDS011;22044;48.298;10.008;2022-07-18T14:11:22;4.55;;;2.05;;
35961;SDS011;22044;48.298;10.008;2022-07-18T14:14:07;2.47;;;1.92;;
35961;SDS011;22044;48.298;10.008;2022-07-18T14:16:53;3.72;;;1.73;;
35961;SDS011;22044;48.298;10.008;2022-07-18T14:19:38;3.15;;;1.60;;
35961;SDS011;22044;48.298;10.008;2022-07-18T14:22:24;3.70;;;1.90;;
35961;SDS011;22044;48.298;10.008;2022-07-18T14:25:11;4.50;;;1.70;;
35961;SDS011;22044;48.298;10.008;2022-07-18T14:27:59;1.90;;;1.60;;
35961;SDS011;22044;48.298;10.008;2022-07-18T14:30:45;2.08;;;1.65;;
35961;SDS011;22044;48.298;10.008;2022-07-18T14:33:31;2.85;;;1.73;;
35961;SDS011;22044;48.298;10.008;2022-07-18T14:36:17;2.72;;;1.70;;
35961;SDS011;22044;48.298;10.008;2022-07-18T14:39:02;2.08;;;1.70;;
35961;SDS011;22044;48.298;10.008;2022-07-18T14:41:48;3.47;;;1.67;;
35961;SDS011;22044;48.298;10.008;2022-07-18T14:44:35;2.53;;;2.03;;
35961;SDS011;22044;48.298;10.008;2022-07-18T14:47:21;2.33;;;1.52;;
35961;SDS011;22044;48.298;10.008;2022-07-18T14:50:08;2.65;;;1.73;;
35961;SDS011;22044;48.298;10.008;2022-07-18T14:52:54;2.42;;;1.55;;
35961;SDS011;22044;48.298;10.008;2022-07-18T14:55:40;4.78;;;1.58;;
35961;SDS011;22044;48.298;10.008;2022-07-18T14:58:27;2.22;;;1.63;;
35961;SDS011;22044;48.298;10.008;2022-07-18T15:01:14;3.45;;;1.45;;
35961;SDS011;22044;48.298;10.008;2022-07-18T15:04:03;3.35;;;2.00;;
35961;SDS011;22044;48.298;10.008;2022-07-18T15:06:49;2.45;;;1.67;;
35961;SDS011;22044;48.298;10.008;2022-07-18T15:09:34;1.73;;;1.50;;
35961;SDS011;22044;48.298;10.008;2022-07-18T15:12:20;4.38;;;1.60;;
35961;SDS011;22044;48.298;10.008;2022-07-18T15:15:06;2.63;;;1.80;;
35961;SDS011;22044;48.298;10.008;2022-07-18T15:17:55;2.30;;;1.90;;
35961;SDS011;22044;48.298;10.008;2022-07-18T15:20:41;2.90;;;1.58;;
35961;SDS011;22044;48.298;10.008;2022-07-18T15:23:26;1.73;;;1.52;;
35961;SDS011;22044;48.298;10.008;2022-07-18T15:26:12;2.17;;;1.60;;
35961;SDS011;22044;48.298;10.008;2022-07-18T15:28:57;5.72;;;1.80;;
35961;SDS011;22044;48.298;10.008;2022-07-18T15:31:43;3.67;;;1.88;;
35961;SDS011;22044;48.298;10.008;2022-07-18T15:34:30;2.63;;;1.58;;
35961;SDS011;22044;48.298;10.008;2022-07-18T15:37:16;3.13;;;1.73;;
35961;SDS011;22044;48.298;10.008;2022-07-18T15:40:02;3.78;;;1.42;;
35961;SDS011;22044;48.298;10.008;2022-07-18T15:42:48;2.13;;;1.58;;
35961;SDS011;22044;48.298;10.008;2022-07-18T15:45:33;1.80;;;1.60;;
35961;SDS011;22044;48.298;10.008;2022-07-18T15:48:19;4.72;;;1.92;;
35961;SDS011;22044;48.298;10.008;2022-07-18T15:51:06;1.85;;;1.40;;
35961;SDS011;22044;48.298;10.008;2022-07-18T15:53:52;1.70;;;1.60;;
35961;SDS011;22044;48.298;10.008;2022-07-18T15:56:38;2.88;;;1.70;;
35961;SDS011;22044;48.298;10.008;2022-07-18T15:59:23;2.60;;;1.60;;
35961;SDS011;22044;48.298;10.008;2022-07-18T16:02:08;2.28;;;1.55;;
35961;SDS011;22044;48.298;10.008;2022-07-18T16:04:54;2.60;;;1.70;;
35961;SDS011;22044;48.298;10.008;2022-07-18T16:07:41;2.38;;;1.70;;
35961;SDS011;22044;48.298;10.008;2022-07-18T16:10:27;1.92;;;1.83;;
35961;SDS011;22044;48.298;10.008;2022-07-18T16:13:13;3.90;;;1.70;;
35961;SDS011;22044;48.298;10.008;2022-07-18T16:15:58;4.55;;;2.15;;
35961;SDS011;22044;48.298;10.008;2022-07-18T16:18:44;1.75;;;1.35;;
35961;SDS011;22044;48.298;10.008;2022-07-18T16:21:29;3.00;;;1.73;;
35961;SDS011;22044;48.298;10.008;2022-07-18T16:24:16;5.20;;;1.50;;
35961;SDS011;22044;48.298;10.008;2022-07-18T16:27:02;4.70;;;1.73;;
35961;SDS011;22044;48.298;10.008;2022-07-18T16:29:48;5.07;;;1.70;;
35961;SDS011;22044;48.298;10.008;2022-07-18T16:32:34;5.78;;;1.60;;
35961;SDS011;22044;48.298;10.008;2022-07-18T16:35:20;2.25;;;1.60;;